createdAt,value
2023-01-06T00:00:42.495Z,24.23
2023-01-06T00:01:42.444Z,24.23
2023-01-06T00:02:42.560Z,24.23
2023-01-06T00:03:42.457Z,24.23
2023-01-06T00:04:42.691Z,24.43
2023-01-06T00:05:42.441Z,24.13
2023-01-06T00:06:42.451Z,24.23
2023-01-06T00:07:42.439Z,24.13
2023-01-06T00:08:42.449Z,24.13
2023-01-06T00:09:42.439Z,24.13
2023-01-06T00:10:42.446Z,24.13
2023-01-06T00:11:42.442Z,24.13
2023-01-06T00:12:42.447Z,24.13
2023-01-06T00:13:42.443Z,24.13
2023-01-06T00:14:42.441Z,24.23
2023-01-06T00:15:42.451Z,24.13
2023-01-06T00:16:42.440Z,24.13
2023-01-06T00:17:42.453Z,24.13
2023-01-06T00:18:42.443Z,24.13
2023-01-06T00:19:42.430Z,24.13
2023-01-06T00:20:42.561Z,24.13
2023-01-06T00:21:42.439Z,24.13
2023-01-06T00:22:42.433Z,24.13
2023-01-06T00:23:42.428Z,24.23
2023-01-06T00:24:42.435Z,24.13
2023-01-06T00:25:42.443Z,24.13
2023-01-06T00:26:42.432Z,24.13
2023-01-06T00:27:42.424Z,24.04
2023-01-06T00:28:42.433Z,24.13
2023-01-06T00:29:42.422Z,24.33
2023-01-06T00:30:42.446Z,24.23
2023-01-06T00:31:42.420Z,24.33
2023-01-06T00:32:42.430Z,24.13
2023-01-06T00:33:42.426Z,24.33
2023-01-06T00:34:42.425Z,24.04
2023-01-06T00:35:42.424Z,24.13
2023-01-06T00:36:42.546Z,24.13
2023-01-06T00:37:42.414Z,24.04
2023-01-06T00:38:42.428Z,24.23
2023-01-06T00:39:42.415Z,24.04
2023-01-06T00:40:42.421Z,24.13
2023-01-06T00:41:42.411Z,24.13
2023-01-06T00:42:42.423Z,24.43
2023-01-06T00:43:42.411Z,24.33
2023-01-06T00:44:42.419Z,24.33
2023-01-06T00:45:42.409Z,24.04
2023-01-06T00:46:42.417Z,24.33
2023-01-06T00:47:42.408Z,24.33
2023-01-06T00:48:52.395Z,24.23
2023-01-06T00:49:42.406Z,24.13
2023-01-06T00:50:42.413Z,24.04
2023-01-06T00:51:42.408Z,24.04
2023-01-06T00:52:42.530Z,24.43
2023-01-06T00:53:42.402Z,24.23
2023-01-06T00:54:42.411Z,24.43
2023-01-06T00:55:42.402Z,23.94
2023-01-06T00:56:42.510Z,24.43
2023-01-06T00:57:42.402Z,24.43
2023-01-06T00:58:42.408Z,24.43
2023-01-06T00:59:42.397Z,24.23
2023-01-06T01:00:42.404Z,24.04
2023-01-06T01:01:42.562Z,24.43
2023-01-06T01:02:42.525Z,24.23
2023-01-06T01:03:42.405Z,24.23
2023-01-06T01:04:42.393Z,24.13
2023-01-06T01:05:42.403Z,24.43
2023-01-06T01:06:42.390Z,24.33
2023-01-06T01:07:42.400Z,24.33
2023-01-06T01:08:42.523Z,24.33
2023-01-06T01:09:42.397Z,24.43
2023-01-06T01:10:42.387Z,24.43
2023-01-06T01:11:42.392Z,24.13
2023-01-06T01:12:42.386Z,24.23
2023-01-06T01:13:42.392Z,24.23
2023-01-06T01:14:42.382Z,24.33
2023-01-06T01:15:42.409Z,23.94
2023-01-06T01:16:42.390Z,24.23
2023-01-06T01:17:42.388Z,24.33
2023-01-06T01:18:42.380Z,24.33
2023-01-06T01:19:42.393Z,24.23
2023-01-06T01:20:42.393Z,24.33
2023-01-06T01:21:42.396Z,24.04
2023-01-06T01:22:42.379Z,24.33
2023-01-06T01:23:42.383Z,24.23
2023-01-06T01:24:42.516Z,24.04
2023-01-06T01:25:42.383Z,24.04
2023-01-06T01:26:42.377Z,24.33
2023-01-06T01:27:42.383Z,24.04
2023-01-06T01:28:42.383Z,24.33
2023-01-06T01:29:42.383Z,24.33
2023-01-06T01:30:42.425Z,24.04
2023-01-06T01:31:42.381Z,24.33
2023-01-06T01:32:42.374Z,24.23
2023-01-06T01:33:42.380Z,24.23
2023-01-06T01:34:42.369Z,24.13
2023-01-06T01:35:42.377Z,24.33
2023-01-06T01:36:42.368Z,24.43
2023-01-06T01:37:42.376Z,24.43
2023-01-06T01:38:42.367Z,24.23
2023-01-06T01:39:42.373Z,24.23
2023-01-06T01:40:42.494Z,24.04
2023-01-06T01:41:42.395Z,24.33
2023-01-06T01:42:42.366Z,24.23
2023-01-06T01:43:42.384Z,24.43
2023-01-06T01:44:42.369Z,24.43
2023-01-06T01:45:42.370Z,24.33
2023-01-06T01:46:42.361Z,24.13
2023-01-06T01:47:42.366Z,24.23
2023-01-06T01:48:42.365Z,24.13
2023-01-06T01:49:42.365Z,24.33
2023-01-06T01:50:42.363Z,24.43
2023-01-06T01:51:42.362Z,24.33
2023-01-06T01:52:42.356Z,24.33
2023-01-06T01:53:42.364Z,24.23
2023-01-06T01:54:42.354Z,24.23
2023-01-06T01:55:42.365Z,24.23
2023-01-06T01:56:42.470Z,24.33
2023-01-06T01:57:42.357Z,24.23
2023-01-06T01:58:42.359Z,24.23
2023-01-06T01:59:42.357Z,24.33
2023-01-06T02:00:42.352Z,24.43
2023-01-06T02:01:42.475Z,24.33
2023-01-06T02:02:42.529Z,24.23
2023-01-06T02:03:42.354Z,24.43
2023-01-06T02:04:42.353Z,24.43
2023-01-06T02:05:42.365Z,24.43
2023-01-06T02:06:42.341Z,24.43
2023-01-06T02:07:42.353Z,24.04
2023-01-06T02:08:42.343Z,24.43
2023-01-06T02:09:42.349Z,24.43
2023-01-06T02:10:42.345Z,24.33
2023-01-06T02:11:42.352Z,24.04
2023-01-06T02:12:42.478Z,24.43
2023-01-06T02:13:42.342Z,24.04
2023-01-06T02:14:42.341Z,24.43
2023-01-06T02:15:42.401Z,24.04
2023-01-06T02:16:42.339Z,24.33
2023-01-06T02:17:42.341Z,24.13
2023-01-06T02:18:42.333Z,24.43
2023-01-06T02:19:42.339Z,24.33
2023-01-06T02:20:42.334Z,23.94
2023-01-06T02:21:42.355Z,24.04
2023-01-06T02:22:42.329Z,23.94
2023-01-06T02:23:42.336Z,24.04
2023-01-06T02:24:42.373Z,23.94
2023-01-06T02:25:42.337Z,23.94
2023-01-06T02:26:42.334Z,24.43
2023-01-06T02:27:42.343Z,23.94
2023-01-06T02:28:42.449Z,24.04
2023-01-06T02:29:42.336Z,24.04
2023-01-06T02:30:42.325Z,23.94
2023-01-06T02:31:42.333Z,23.94
2023-01-06T02:32:42.324Z,24.43
2023-01-06T02:33:42.330Z,23.94
2023-01-06T02:34:42.322Z,23.94
2023-01-06T02:35:42.328Z,24.13
2023-01-06T02:36:42.319Z,23.94
2023-01-06T02:37:42.322Z,24.23
2023-01-06T02:38:42.323Z,23.94
2023-01-06T02:39:42.341Z,24.13
2023-01-06T02:40:42.315Z,23.94
2023-01-06T02:41:42.327Z,23.94
2023-01-06T02:42:42.319Z,24.04
2023-01-06T02:43:42.320Z,24.13
2023-01-06T02:44:42.428Z,24.33
2023-01-06T02:45:42.326Z,24.13
2023-01-06T02:46:42.365Z,24.13
2023-01-06T02:47:42.319Z,24.04
2023-01-06T02:48:42.309Z,23.94
2023-01-06T02:49:42.314Z,23.94
2023-01-06T02:50:42.314Z,23.94
2023-01-06T02:51:42.317Z,24.13
2023-01-06T02:52:42.308Z,24.13
2023-01-06T02:53:42.313Z,24.04
2023-01-06T02:54:42.305Z,24.13
2023-01-06T02:55:42.313Z,23.94
2023-01-06T02:56:42.459Z,24.04
2023-01-06T02:57:42.322Z,24.13
2023-01-06T02:58:42.306Z,24.23
2023-01-06T02:59:42.310Z,24.33
2023-01-06T03:00:42.430Z,24.13
2023-01-06T03:01:42.439Z,24.13
2023-01-06T03:02:42.301Z,24.04
2023-01-06T03:03:42.306Z,24.23
2023-01-06T03:04:42.389Z,24.23
2023-01-06T03:05:42.304Z,24.04
2023-01-06T03:06:42.294Z,24.23
2023-01-06T03:07:42.302Z,24.23
2023-01-06T03:08:42.297Z,24.23
2023-01-06T03:09:42.300Z,24.23
2023-01-06T03:10:42.291Z,24.13
2023-01-06T03:11:42.300Z,24.23
2023-01-06T03:12:42.291Z,24.23
2023-01-06T03:13:42.301Z,24.23
2023-01-06T03:14:42.291Z,24.23
2023-01-06T03:15:42.300Z,24.23
2023-01-06T03:16:42.408Z,24.23
2023-01-06T03:17:42.294Z,24.13
2023-01-06T03:18:42.285Z,24.23
2023-01-06T03:19:42.291Z,24.23
2023-01-06T03:20:42.284Z,24.23
2023-01-06T03:21:42.288Z,24.23
2023-01-06T03:22:42.284Z,24.23
2023-01-06T03:23:42.291Z,24.23
2023-01-06T03:24:42.281Z,24.23
2023-01-06T03:25:42.285Z,23.85
2023-01-06T03:26:42.278Z,24.04
2023-01-06T03:27:42.284Z,23.94
2023-01-06T03:28:42.285Z,24.23
2023-01-06T03:29:42.282Z,23.94
2023-01-06T03:30:42.278Z,24.23
2023-01-06T03:31:42.308Z,23.94
2023-01-06T03:32:42.401Z,24.23
2023-01-06T03:33:42.280Z,24.23
2023-01-06T03:34:42.271Z,24.23
2023-01-06T03:35:42.281Z,24.23
2023-01-06T03:36:42.282Z,24.23
2023-01-06T03:37:42.276Z,23.85
2023-01-06T03:38:42.273Z,23.94
2023-01-06T03:39:42.278Z,23.85
2023-01-06T03:40:42.276Z,24.04
2023-01-06T03:41:42.276Z,24.13
2023-01-06T03:42:42.266Z,24.04
2023-01-06T03:43:42.271Z,24.04
2023-01-06T03:44:42.268Z,23.94
2023-01-06T03:45:42.276Z,24.04
2023-01-06T03:46:42.279Z,24.04
2023-01-06T03:47:42.273Z,23.94
2023-01-06T03:48:42.381Z,24.13
2023-01-06T03:49:42.268Z,23.94
2023-01-06T03:50:42.262Z,24.04
2023-01-06T03:51:42.274Z,24.04
2023-01-06T03:52:42.259Z,24.04
2023-01-06T03:53:42.284Z,24.04
2023-01-06T03:54:42.257Z,24.04
2023-01-06T03:55:42.271Z,24.04
2023-01-06T03:56:42.265Z,24.04
2023-01-06T03:57:42.261Z,24.13
2023-01-06T03:58:42.253Z,24.04
2023-01-06T03:59:42.260Z,24.04
2023-01-06T04:00:42.323Z,24.04
2023-01-06T04:01:42.295Z,24.04
2023-01-06T04:02:42.265Z,24.13
2023-01-06T04:03:42.302Z,24.04
2023-01-06T04:04:42.374Z,24.04
2023-01-06T04:05:42.252Z,24.04
2023-01-06T04:06:42.250Z,24.04
2023-01-06T04:07:42.259Z,24.04
2023-01-06T04:08:42.243Z,24.04
2023-01-06T04:09:42.250Z,24.04
2023-01-06T04:10:42.244Z,24.04
2023-01-06T04:11:42.249Z,24.04
2023-01-06T04:12:42.240Z,24.04
2023-01-06T04:13:42.249Z,24.04
2023-01-06T04:14:42.251Z,24.04
2023-01-06T04:15:42.247Z,23.94
2023-01-06T04:16:42.237Z,24.04
2023-01-06T04:17:42.251Z,24.04
2023-01-06T04:18:42.237Z,24.04
2023-01-06T04:19:42.247Z,24.04
2023-01-06T04:20:42.355Z,23.94
2023-01-06T04:21:42.242Z,23.94
2023-01-06T04:22:42.244Z,23.94
2023-01-06T04:23:42.242Z,23.94
2023-01-06T04:24:42.233Z,23.94
2023-01-06T04:25:44.803Z,23.94
2023-01-06T04:26:42.233Z,23.94
2023-01-06T04:27:42.256Z,23.85
2023-01-06T04:28:42.234Z,23.94
2023-01-06T04:29:42.236Z,23.94
2023-01-06T04:30:42.229Z,23.94
2023-01-06T04:31:42.309Z,23.85
2023-01-06T04:32:42.235Z,23.94
2023-01-06T04:33:42.237Z,23.75
2023-01-06T04:34:42.231Z,23.85
2023-01-06T04:35:42.228Z,23.94
2023-01-06T04:36:42.343Z,23.85
2023-01-06T04:37:42.236Z,23.94
2023-01-06T04:38:42.226Z,23.85
2023-01-06T04:39:42.228Z,23.85
2023-01-06T04:40:42.219Z,23.75
2023-01-06T04:41:42.230Z,23.75
2023-01-06T04:42:42.216Z,24.33
2023-01-06T04:43:42.237Z,24.04
2023-01-06T04:44:42.214Z,24.23
2023-01-06T04:45:42.250Z,24.23
2023-01-06T04:46:42.212Z,24.23
2023-01-06T04:47:42.219Z,23.94
2023-01-06T04:48:42.223Z,24.13
2023-01-06T04:49:42.217Z,24.23
2023-01-06T04:50:42.210Z,24.23
2023-01-06T04:51:42.223Z,24.13
2023-01-06T04:52:42.353Z,24.23
2023-01-06T04:53:42.218Z,24.23
2023-01-06T04:54:42.211Z,24.23
2023-01-06T04:55:42.218Z,24.23
2023-01-06T04:56:42.207Z,24.23
2023-01-06T04:57:42.215Z,24.13
2023-01-06T04:58:42.248Z,24.23
2023-01-06T04:59:42.215Z,24.23
2023-01-06T05:00:42.228Z,24.13
2023-01-06T05:01:42.338Z,23.55
2023-01-06T05:02:42.204Z,23.55
2023-01-06T05:03:42.323Z,23.55
2023-01-06T05:04:47.779Z,23.65
2023-01-06T05:05:42.207Z,23.85
2023-01-06T05:06:42.198Z,23.65
2023-01-06T05:07:42.207Z,24.13
2023-01-06T05:08:42.355Z,24.13
2023-01-06T05:09:42.203Z,23.65
2023-01-06T05:10:42.200Z,23.65
2023-01-06T05:11:42.216Z,23.94
2023-01-06T05:12:42.197Z,23.94
2023-01-06T05:13:42.225Z,24.04
2023-01-06T05:14:42.191Z,23.94
2023-01-06T05:15:42.206Z,23.75
2023-01-06T05:16:42.258Z,23.85
2023-01-06T05:17:42.189Z,23.85
2023-01-06T05:18:42.203Z,23.65
2023-01-06T05:19:42.187Z,24.04
2023-01-06T05:20:42.196Z,23.55
2023-01-06T05:21:42.185Z,23.46
2023-01-06T05:22:42.191Z,23.55
2023-01-06T05:23:42.185Z,23.75
2023-01-06T05:24:42.316Z,23.65
2023-01-06T05:25:42.202Z,23.75
2023-01-06T05:26:42.203Z,23.46
2023-01-06T05:27:42.186Z,23.55
2023-01-06T05:28:42.199Z,23.36
2023-01-06T05:29:42.206Z,23.36
2023-01-06T05:30:42.186Z,23.46
2023-01-06T05:31:42.258Z,23.65
2023-01-06T05:32:42.181Z,23.55
2023-01-06T05:33:42.173Z,23.26
2023-01-06T05:34:42.180Z,23.46
2023-01-06T05:35:42.170Z,23.26
2023-01-06T05:36:42.179Z,23.36
2023-01-06T05:37:42.169Z,23.46
2023-01-06T05:38:42.177Z,23.16
2023-01-06T05:39:42.168Z,23.16
2023-01-06T05:40:42.315Z,23.26
2023-01-06T05:41:42.181Z,23.26
2023-01-06T05:42:42.174Z,23.16
2023-01-06T05:43:42.168Z,23.36
2023-01-06T05:44:42.174Z,23.36
2023-01-06T05:45:42.185Z,23.26
2023-01-06T05:46:42.171Z,23.36
2023-01-06T05:47:42.162Z,23.46
2023-01-06T05:48:42.174Z,23.26
2023-01-06T05:49:42.170Z,23.26
2023-01-06T05:50:42.164Z,23.16
2023-01-06T05:51:42.157Z,23.36
2023-01-06T05:52:42.163Z,23.36
2023-01-06T05:53:42.168Z,23.07
2023-01-06T05:54:42.161Z,23.07
2023-01-06T05:55:42.153Z,23.07
2023-01-06T05:56:42.434Z,23.16
2023-01-06T05:57:42.158Z,23.16
2023-01-06T05:58:42.161Z,23.07
2023-01-06T05:59:42.151Z,23.16
2023-01-06T06:00:42.160Z,23.16
2023-01-06T06:01:42.208Z,23.16
2023-01-06T06:02:42.168Z,23.16
2023-01-06T06:03:42.182Z,23.25
2023-01-06T06:04:42.155Z,23.07
2023-01-06T06:05:42.150Z,23.16
2023-01-06T06:06:42.150Z,23.16
2023-01-06T06:07:42.145Z,23.06
2023-01-06T06:08:42.151Z,23.16
2023-01-06T06:09:42.143Z,23.07
2023-01-06T06:10:42.148Z,23.07
2023-01-06T06:11:42.149Z,23.16
2023-01-06T06:12:42.262Z,23.07
2023-01-06T06:13:42.140Z,23.06
2023-01-06T06:14:42.146Z,23.16
2023-01-06T06:15:42.140Z,23.07
2023-01-06T06:16:42.242Z,23.16
2023-01-06T06:17:42.140Z,23.16
2023-01-06T06:18:42.140Z,23.25
2023-01-06T06:19:42.144Z,23.06
2023-01-06T06:20:42.140Z,23.26
2023-01-06T06:21:42.135Z,23.35
2023-01-06T06:22:42.142Z,23.06
2023-01-06T06:23:42.137Z,23.06
2023-01-06T06:24:42.141Z,23.06
2023-01-06T06:25:42.128Z,23.16
2023-01-06T06:26:42.144Z,23.16
2023-01-06T06:27:42.131Z,23.25
2023-01-06T06:28:42.250Z,23.06
2023-01-06T06:29:42.122Z,23.16
2023-01-06T06:30:42.131Z,23.36
2023-01-06T06:31:42.291Z,23.16
2023-01-06T06:32:42.128Z,23.16
2023-01-06T06:33:42.119Z,23.06
2023-01-06T06:34:42.137Z,23.06
2023-01-06T06:35:42.120Z,23.06
2023-01-06T06:36:42.132Z,23.06
2023-01-06T06:37:42.115Z,23.06
2023-01-06T06:38:42.124Z,23.35
2023-01-06T06:39:42.121Z,23.06
2023-01-06T06:40:42.122Z,23.06
2023-01-06T06:41:42.113Z,23.25
2023-01-06T06:42:42.119Z,23.16
2023-01-06T06:43:42.150Z,23.06
2023-01-06T06:44:42.234Z,23.25
2023-01-06T06:45:42.132Z,23.16
2023-01-06T06:46:42.116Z,23.16
2023-01-06T06:47:42.108Z,23.06
2023-01-06T06:48:42.119Z,23.25
2023-01-06T06:49:42.133Z,23.16
2023-01-06T06:50:42.112Z,23.16
2023-01-06T06:51:42.118Z,23.06
2023-01-06T06:52:42.111Z,23.16
2023-01-06T06:53:42.100Z,23.06
2023-01-06T06:54:42.107Z,23.25
2023-01-06T06:55:42.100Z,23.06
2023-01-06T06:56:42.105Z,23.25
2023-01-06T06:57:42.101Z,23.16
2023-01-06T06:58:42.103Z,23.16
2023-01-06T06:59:42.095Z,23.06
2023-01-06T07:00:42.124Z,23.16
2023-01-06T07:01:42.260Z,23.16
2023-01-06T07:02:42.103Z,23.16
2023-01-06T07:03:42.111Z,23.16
2023-01-06T07:04:42.134Z,23.16
2023-01-06T07:05:42.093Z,23.07
2023-01-06T07:06:42.095Z,22.96
2023-01-06T07:07:42.092Z,23.16
2023-01-06T07:08:42.094Z,23.26
2023-01-06T07:09:42.090Z,22.96
2023-01-06T07:10:42.093Z,23.16
2023-01-06T07:11:42.087Z,23.07
2023-01-06T07:12:42.104Z,22.88
2023-01-06T07:13:42.084Z,23.16
2023-01-06T07:14:42.089Z,23.07
2023-01-06T07:15:42.102Z,23.16
2023-01-06T07:16:42.215Z,22.96
2023-01-06T07:17:42.092Z,22.97
2023-01-06T07:18:42.089Z,23.06
2023-01-06T07:19:42.081Z,23.16
2023-01-06T07:20:42.087Z,22.86
2023-01-06T07:21:42.077Z,22.96
2023-01-06T07:22:42.100Z,23.16
2023-01-06T07:23:42.079Z,22.86
2023-01-06T07:24:42.082Z,23.06
2023-01-06T07:25:42.073Z,22.96
2023-01-06T07:26:42.099Z,22.96
2023-01-06T07:27:42.079Z,22.96
2023-01-06T07:28:42.079Z,22.97
2023-01-06T07:29:42.069Z,22.78
2023-01-06T07:30:42.078Z,22.77
2023-01-06T07:31:42.074Z,22.96
2023-01-06T07:32:42.192Z,22.78
2023-01-06T07:33:42.069Z,22.96
2023-01-06T07:34:42.076Z,22.86
2023-01-06T07:35:42.064Z,22.88
2023-01-06T07:36:42.075Z,22.86
2023-01-06T07:37:42.064Z,22.88
2023-01-06T07:38:42.073Z,22.86
2023-01-06T07:39:42.061Z,22.86
2023-01-06T07:40:42.068Z,22.88
2023-01-06T07:41:42.067Z,22.97
2023-01-06T07:42:42.068Z,22.88
2023-01-06T07:43:42.056Z,22.97
2023-01-06T07:44:42.065Z,22.88
2023-01-06T07:45:42.070Z,22.97
2023-01-06T07:46:42.071Z,22.97
2023-01-06T07:47:42.053Z,22.97
2023-01-06T07:48:42.172Z,22.96
2023-01-06T07:49:42.053Z,22.86
2023-01-06T07:50:42.059Z,22.88
2023-01-06T07:51:42.052Z,22.88
2023-01-06T07:52:42.056Z,22.86
2023-01-06T07:53:42.045Z,22.77
2023-01-06T07:54:42.060Z,22.77
2023-01-06T07:55:42.048Z,22.78
2023-01-06T07:56:42.052Z,22.88
2023-01-06T07:57:42.044Z,22.88
2023-01-06T07:58:42.052Z,22.88
2023-01-06T07:59:42.042Z,22.88
2023-01-06T08:00:42.051Z,22.88
2023-01-06T08:01:42.191Z,22.88
2023-01-06T08:02:42.235Z,22.77
2023-01-06T08:03:42.039Z,22.86
2023-01-06T08:04:42.072Z,22.78
2023-01-06T08:05:42.134Z,22.78
2023-01-06T08:06:42.041Z,22.97
2023-01-06T08:07:42.039Z,22.88
2023-01-06T08:08:42.039Z,22.88
2023-01-06T08:09:42.031Z,22.88
2023-01-06T08:10:42.056Z,22.78
2023-01-06T08:11:42.041Z,22.97
2023-01-06T08:12:42.040Z,22.88
2023-01-06T08:13:42.030Z,22.97
2023-01-06T08:14:42.034Z,22.97
2023-01-06T08:15:42.088Z,22.97
2023-01-06T08:16:42.033Z,22.78
2023-01-06T08:17:42.023Z,22.97
2023-01-06T08:18:42.028Z,22.68
2023-01-06T08:19:42.022Z,22.78
2023-01-06T08:20:42.154Z,22.97
2023-01-06T08:21:42.020Z,22.78
2023-01-06T08:22:42.027Z,22.78
2023-01-06T08:23:42.020Z,22.58
2023-01-06T08:24:42.026Z,22.88
2023-01-06T08:25:42.025Z,22.68
2023-01-06T08:26:42.024Z,22.58
2023-01-06T08:27:42.020Z,22.68
2023-01-06T08:28:42.023Z,22.68
2023-01-06T08:29:42.012Z,22.78
2023-01-06T08:30:42.021Z,22.88
2023-01-06T08:31:42.018Z,22.88
2023-01-06T08:32:42.022Z,22.68
2023-01-06T08:33:42.013Z,22.68
2023-01-06T08:34:42.021Z,22.58
2023-01-06T08:35:42.011Z,22.68
2023-01-06T08:36:42.141Z,22.68
2023-01-06T08:37:42.012Z,22.68
2023-01-06T08:38:42.013Z,22.58
2023-01-06T08:39:42.007Z,22.78
2023-01-06T08:40:42.016Z,22.68
2023-01-06T08:41:42.004Z,22.78
2023-01-06T08:42:42.008Z,22.58
2023-01-06T08:43:43.207Z,22.68
2023-01-06T08:44:42.008Z,22.68
2023-01-06T08:45:42.004Z,22.58
2023-01-06T08:46:42.022Z,22.68
2023-01-06T08:47:42.018Z,22.78
2023-01-06T08:48:42.005Z,22.78
2023-01-06T08:49:41.997Z,22.68
2023-01-06T08:50:42.006Z,22.78
2023-01-06T08:51:42.006Z,22.78
2023-01-06T08:52:42.126Z,22.68
2023-01-06T08:53:41.993Z,22.68
2023-01-06T08:54:42.008Z,22.78
2023-01-06T08:55:41.992Z,22.68
2023-01-06T08:56:41.998Z,22.68
2023-01-06T08:57:41.993Z,22.68
2023-01-06T08:58:41.997Z,22.68
2023-01-06T08:59:41.988Z,22.68
2023-01-06T09:00:41.993Z,22.78
2023-01-06T09:01:42.119Z,22.68
2023-01-06T09:02:41.992Z,22.58
2023-01-06T09:03:41.990Z,22.78
2023-01-06T09:04:42.003Z,22.68
2023-01-06T09:05:41.984Z,22.68
2023-01-06T09:06:41.989Z,22.68
2023-01-06T09:07:41.982Z,22.68
2023-01-06T09:08:42.138Z,22.58
2023-01-06T09:09:41.982Z,22.78
2023-01-06T09:10:41.987Z,22.58
2023-01-06T09:11:41.980Z,22.49
2023-01-06T09:12:41.985Z,22.58
2023-01-06T09:13:41.979Z,22.68
2023-01-06T09:14:41.983Z,22.58
2023-01-06T09:15:42.009Z,22.58
2023-01-06T09:16:42.026Z,22.68
2023-01-06T09:17:41.979Z,22.58
2023-01-06T09:18:41.981Z,22.68
2023-01-06T09:19:41.980Z,22.58
2023-01-06T09:20:41.986Z,22.58
2023-01-06T09:21:41.969Z,22.58
2023-01-06T09:22:41.989Z,22.58
2023-01-06T09:23:41.966Z,22.58
2023-01-06T09:24:42.126Z,22.58
2023-01-06T09:25:41.963Z,22.68
2023-01-06T09:26:42.033Z,22.58
2023-01-06T09:27:41.964Z,22.68
2023-01-06T09:28:41.971Z,22.58
2023-01-06T09:29:41.974Z,22.78
2023-01-06T09:30:41.966Z,22.58
2023-01-06T09:31:41.974Z,22.68
2023-01-06T09:32:41.967Z,22.78
2023-01-06T09:33:41.964Z,22.57
2023-01-06T09:34:41.971Z,22.58
2023-01-06T09:35:41.966Z,22.68
2023-01-06T09:36:41.955Z,22.49
2023-01-06T09:37:41.972Z,22.68
2023-01-06T09:38:41.959Z,22.58
2023-01-06T09:39:41.971Z,22.58
2023-01-06T09:40:42.085Z,22.68
2023-01-06T09:41:41.958Z,22.68
2023-01-06T09:42:41.949Z,22.58
2023-01-06T09:43:41.962Z,22.68
2023-01-06T09:44:41.948Z,22.58
2023-01-06T09:45:41.952Z,22.58
2023-01-06T09:46:42.024Z,22.58
2023-01-06T09:47:41.952Z,22.58
2023-01-06T09:48:41.944Z,22.58
2023-01-06T09:49:41.957Z,22.68
2023-01-06T09:50:41.947Z,22.58
2023-01-06T09:51:41.955Z,22.68
2023-01-06T09:52:41.947Z,22.68
2023-01-06T09:53:41.949Z,22.68
2023-01-06T09:54:41.941Z,22.58
2023-01-06T09:55:41.948Z,22.58
2023-01-06T09:56:42.057Z,22.58
2023-01-06T09:57:41.945Z,22.68
2023-01-06T09:58:41.936Z,22.58
2023-01-06T09:59:41.945Z,22.68
2023-01-06T10:00:41.963Z,22.58
2023-01-06T10:01:42.124Z,22.68
2023-01-06T10:02:41.932Z,22.58
2023-01-06T10:03:41.999Z,22.67
2023-01-06T10:04:41.932Z,22.68
2023-01-06T10:05:41.978Z,22.58
2023-01-06T10:06:41.934Z,22.68
2023-01-06T10:07:41.938Z,22.68
2023-01-06T10:08:41.936Z,22.68
2023-01-06T10:09:41.937Z,22.68
2023-01-06T10:10:41.925Z,22.68
2023-01-06T10:11:41.946Z,22.68
2023-01-06T10:12:42.042Z,22.58
2023-01-06T10:13:41.933Z,22.58
2023-01-06T10:14:41.933Z,22.68
2023-01-06T10:15:41.933Z,22.68
2023-01-06T10:16:41.923Z,22.58
2023-01-06T10:17:41.927Z,22.68
2023-01-06T10:18:41.923Z,22.39
2023-01-06T10:19:41.927Z,22.39
2023-01-06T10:20:41.919Z,22.68
2023-01-06T10:21:41.922Z,22.49
2023-01-06T10:22:41.916Z,22.68
2023-01-06T10:23:41.922Z,22.58
2023-01-06T10:24:41.916Z,22.68
2023-01-06T10:25:41.921Z,22.58
2023-01-06T10:26:41.913Z,22.68
2023-01-06T10:27:41.944Z,22.58
2023-01-06T10:28:42.029Z,22.58
2023-01-06T10:29:41.930Z,22.58
2023-01-06T10:30:44.378Z,22.58
2023-01-06T10:31:41.930Z,22.58
2023-01-06T10:32:42.930Z,22.68
2023-01-06T10:33:41.914Z,22.68
2023-01-06T10:34:41.909Z,22.58
2023-01-06T10:35:41.910Z,22.49
2023-01-06T10:36:41.902Z,22.68
2023-01-06T10:37:41.915Z,22.68
2023-01-06T10:38:41.901Z,22.68
2023-01-06T10:39:41.917Z,22.68
2023-01-06T10:40:41.909Z,22.68
2023-01-06T10:41:41.952Z,22.49
2023-01-06T10:42:41.908Z,22.68
2023-01-06T10:43:41.905Z,22.49
2023-01-06T10:44:42.017Z,22.68
2023-01-06T10:45:41.903Z,22.58
2023-01-06T10:46:41.958Z,22.49
2023-01-06T10:47:41.915Z,22.49
2023-01-06T10:48:41.895Z,22.78
2023-01-06T10:49:41.901Z,22.49
2023-01-06T10:50:41.892Z,22.78
2023-01-06T10:51:41.900Z,22.39
2023-01-06T10:52:41.894Z,22.39
2023-01-06T10:53:41.902Z,22.49
2023-01-06T10:54:41.888Z,22.58
2023-01-06T10:55:41.902Z,22.49
2023-01-06T10:56:41.889Z,22.49
2023-01-06T10:57:41.986Z,22.58
2023-01-06T10:58:41.885Z,22.49
2023-01-06T10:59:41.890Z,22.58
2023-01-06T11:00:42.050Z,22.58
2023-01-06T11:01:42.050Z,22.39
2023-01-06T11:02:42.014Z,22.49
2023-01-06T11:03:42.060Z,22.39
2023-01-06T11:04:41.884Z,22.39
2023-01-06T11:05:41.896Z,22.58
2023-01-06T11:06:41.877Z,22.49
2023-01-06T11:07:41.979Z,22.39
2023-01-06T11:08:41.882Z,22.39
2023-01-06T11:09:41.881Z,22.39
2023-01-06T11:10:41.874Z,22.58
2023-01-06T11:11:41.882Z,22.39
2023-01-06T11:12:41.872Z,22.58
2023-01-06T11:13:41.878Z,22.49
2023-01-06T11:14:41.871Z,22.39
2023-01-06T11:15:41.876Z,22.39
2023-01-06T11:16:42.040Z,22.49
2023-01-06T11:17:41.875Z,22.38
2023-01-06T11:18:41.867Z,22.49
2023-01-06T11:19:41.879Z,22.49
2023-01-06T11:20:41.870Z,22.49
2023-01-06T11:21:41.871Z,22.49
2023-01-06T11:22:41.863Z,22.49
2023-01-06T11:23:41.891Z,22.49
2023-01-06T11:24:41.866Z,22.49
2023-01-06T11:25:41.867Z,22.49
2023-01-06T11:26:41.863Z,22.39
2023-01-06T11:27:41.869Z,22.49
2023-01-06T11:28:41.863Z,22.49
2023-01-06T11:29:41.872Z,22.39
2023-01-06T11:30:41.859Z,22.39
2023-01-06T11:31:41.903Z,22.58
2023-01-06T11:32:41.980Z,22.58
2023-01-06T11:33:41.862Z,22.39
2023-01-06T11:34:41.853Z,22.49
2023-01-06T11:35:41.862Z,22.20
2023-01-06T11:36:41.852Z,22.30
2023-01-06T11:37:41.879Z,22.58
2023-01-06T11:38:41.867Z,22.58
2023-01-06T11:39:42.092Z,22.49
2023-01-06T11:40:41.851Z,22.30
2023-01-06T11:41:41.856Z,22.49
2023-01-06T11:43:41.853Z,22.49
2023-01-06T11:44:41.842Z,22.49
2023-01-06T11:45:41.912Z,22.39
2023-01-06T11:46:41.843Z,22.39
2023-01-06T11:47:41.848Z,22.49
2023-01-06T11:48:41.959Z,22.30
2023-01-06T11:49:41.849Z,22.49
2023-01-06T11:50:41.840Z,22.39
2023-01-06T11:51:41.874Z,22.49
2023-01-06T11:52:41.842Z,22.39
2023-01-06T11:53:41.847Z,22.58
2023-01-06T11:54:41.840Z,22.58
2023-01-06T11:55:41.848Z,22.58
2023-01-06T11:56:41.838Z,22.39
2023-01-06T11:57:41.841Z,22.49
2023-01-06T11:58:41.832Z,22.49
2023-01-06T11:59:41.840Z,22.49
2023-01-06T12:00:41.837Z,22.58
2023-01-06T12:01:41.940Z,22.58
2023-01-06T12:02:41.887Z,22.30
2023-01-06T12:03:41.973Z,22.49
2023-01-06T12:04:41.962Z,22.49
2023-01-06T12:05:41.841Z,22.49
2023-01-06T12:06:41.825Z,22.49
2023-01-06T12:07:41.846Z,22.49
2023-01-06T12:08:41.826Z,22.49
2023-01-06T12:09:43.970Z,22.49
2023-01-06T12:10:41.823Z,22.39
2023-01-06T12:11:41.829Z,22.49
2023-01-06T12:12:41.833Z,22.49
2023-01-06T12:13:44.795Z,22.39
2023-01-06T12:14:41.818Z,22.58
2023-01-06T12:15:41.825Z,22.39
2023-01-06T12:16:41.956Z,22.49
2023-01-06T12:17:42.052Z,22.39
2023-01-06T12:18:41.817Z,22.39
2023-01-06T12:19:41.823Z,22.49
2023-01-06T12:20:41.936Z,22.49
2023-01-06T12:21:41.832Z,22.48
2023-01-06T12:22:41.815Z,22.39
2023-01-06T12:23:41.818Z,22.49
2023-01-06T12:24:41.813Z,22.49
2023-01-06T12:25:41.819Z,22.39
2023-01-06T12:26:41.810Z,22.39
2023-01-06T12:27:41.815Z,22.49
2023-01-06T12:28:41.809Z,22.49
2023-01-06T12:29:41.817Z,22.49
2023-01-06T12:30:41.882Z,22.49
2023-01-06T12:31:41.811Z,22.49
2023-01-06T12:32:41.804Z,22.49
2023-01-06T12:33:41.815Z,22.49
2023-01-06T12:34:41.806Z,22.39
2023-01-06T12:35:41.808Z,22.39
2023-01-06T12:36:41.921Z,22.39
2023-01-06T12:37:41.808Z,22.58
2023-01-06T12:38:41.798Z,22.39
2023-01-06T12:39:41.805Z,22.39
2023-01-06T12:40:41.799Z,22.39
2023-01-06T12:41:41.800Z,22.30
2023-01-06T12:42:41.792Z,22.39
2023-01-06T12:43:41.799Z,22.49
2023-01-06T12:44:41.813Z,22.39
2023-01-06T12:45:46.692Z,22.49
2023-01-06T12:46:41.874Z,22.30
2023-01-06T12:47:41.797Z,22.39
2023-01-06T12:48:41.792Z,22.39
2023-01-06T12:49:41.798Z,22.39
2023-01-06T12:50:41.787Z,22.39
2023-01-06T12:51:41.794Z,22.39
2023-01-06T12:52:41.906Z,22.39
2023-01-06T12:53:41.795Z,22.39